createdAt,value
2022-11-03T00:01:39.812Z,10.73
2022-11-03T00:04:09.473Z,10.63
2022-11-03T00:06:39.788Z,10.63
2022-11-03T00:09:09.789Z,10.47
2022-11-03T00:11:40.099Z,10.41
2022-11-03T00:14:10.240Z,10.44
2022-11-03T00:16:38.938Z,10.37
2022-11-03T00:19:07.814Z,10.33
2022-11-03T00:21:35.905Z,10.26
2022-11-03T00:24:06.527Z,10.61
2022-11-03T00:26:35.976Z,10.57
2022-11-03T00:29:08.224Z,10.59
2022-11-03T00:31:37.435Z,10.34
2022-11-03T00:34:07.260Z,10.18
2022-11-03T00:36:37.987Z,10.41
2022-11-03T00:39:08.200Z,9.93
2022-11-03T00:41:36.850Z,9.86
2022-11-03T00:44:05.497Z,9.91
2022-11-03T00:46:35.474Z,10.03
2022-11-03T00:49:04.707Z,10.12
2022-11-03T00:51:34.625Z,9.90
2022-11-03T00:54:04.464Z,9.95
2022-11-03T00:56:35.580Z,10.03
2022-11-03T00:59:05.277Z,9.80
2022-11-03T01:01:36.257Z,9.80
2022-11-03T01:04:23.408Z,9.50
2022-11-03T01:06:54.379Z,9.70
2022-11-03T01:09:24.418Z,9.72
2022-11-03T01:11:58.287Z,9.95
2022-11-03T01:14:28.020Z,9.61
2022-11-03T01:16:56.119Z,9.39
2022-11-03T01:19:25.404Z,9.36
2022-11-03T01:21:53.856Z,9.31
2022-11-03T01:24:22.777Z,9.41
2022-11-03T01:26:50.883Z,9.32
2022-11-03T01:29:20.587Z,9.55
2022-11-03T01:31:49.092Z,9.32
2022-11-03T01:34:18.789Z,9.46
2022-11-03T01:36:47.731Z,9.38
2022-11-03T01:39:18.239Z,9.41
2022-11-03T01:41:49.040Z,9.44
2022-11-03T01:44:33.390Z,9.70
2022-11-03T01:47:08.838Z,9.44
2022-11-03T01:49:41.359Z,9.39
2022-11-03T01:52:13.012Z,9.34
2022-11-03T01:54:43.221Z,9.15
2022-11-03T01:57:15.085Z,9.19
2022-11-03T01:59:45.639Z,9.21
2022-11-03T02:02:14.250Z,8.97
2022-11-03T02:04:43.000Z,8.94
2022-11-03T02:07:16.977Z,9.30
2022-11-03T02:09:45.390Z,8.85
2022-11-03T02:12:13.497Z,8.81
2022-11-03T02:14:46.711Z,9.09
2022-11-03T02:17:16.030Z,8.92
2022-11-03T02:19:46.824Z,8.97
2022-11-03T02:22:41.785Z,9.13
2022-11-03T02:25:17.680Z,9.14
2022-11-03T02:27:47.317Z,8.92
2022-11-03T02:30:16.071Z,8.71
2022-11-03T02:32:52.719Z,9.04
2022-11-03T02:35:23.576Z,8.88
2022-11-03T02:37:55.720Z,9.02
2022-11-03T02:40:29.061Z,8.95
2022-11-03T02:43:00.444Z,8.97
2022-11-03T02:45:29.481Z,8.75
2022-11-03T02:48:00.446Z,8.94
2022-11-03T02:50:29.167Z,9.39
2022-11-03T02:52:57.623Z,8.60
2022-11-03T02:55:34.150Z,8.90
2022-11-03T02:58:09.553Z,8.93
2022-11-03T03:00:43.914Z,8.89
2022-11-03T03:03:15.692Z,8.82
2022-11-03T03:05:46.832Z,8.79
2022-11-03T03:08:15.810Z,8.66
2022-11-03T03:10:45.371Z,8.79
2022-11-03T03:13:16.915Z,8.89
2022-11-03T03:15:47.963Z,8.85
2022-11-03T03:18:24.600Z,9.04
2022-11-03T03:20:57.612Z,8.88
2022-11-03T03:23:28.004Z,8.89
2022-11-03T03:26:00.137Z,8.83
2022-11-03T03:28:34.075Z,8.81
2022-11-03T03:31:03.007Z,8.47
2022-11-03T03:33:31.320Z,8.34
2022-11-03T03:36:01.142Z,8.47
2022-11-03T03:38:33.972Z,8.52
2022-11-03T03:41:05.520Z,8.25
2022-11-03T03:43:37.801Z,8.61
2022-11-03T03:46:09.282Z,8.60
2022-11-03T03:48:37.585Z,8.35
2022-11-03T03:51:06.930Z,8.45
2022-11-03T03:53:35.024Z,8.21
2022-11-03T03:56:05.900Z,8.21
2022-11-03T03:58:34.003Z,8.22
2022-11-03T04:01:03.843Z,8.40
2022-11-03T04:03:32.097Z,8.03
2022-11-03T04:06:00.310Z,7.92
2022-11-03T04:08:28.642Z,7.89
2022-11-03T04:11:14.422Z,8.00
2022-11-03T04:14:00.209Z,7.83
2022-11-03T04:16:47.370Z,8.09
2022-11-03T04:19:33.413Z,7.90
2022-11-03T04:22:21.427Z,7.91
2022-11-03T04:24:51.185Z,8.11
2022-11-03T04:27:37.523Z,8.38
2022-11-03T04:30:15.590Z,8.23
2022-11-03T04:32:45.915Z,8.16
2022-11-03T04:35:18.785Z,8.20
2022-11-03T04:37:48.034Z,7.83
2022-11-03T04:40:18.511Z,7.86
2022-11-03T04:42:47.569Z,7.72
2022-11-03T04:45:22.946Z,7.95
2022-11-03T04:47:53.529Z,7.86
2022-11-03T04:50:24.658Z,7.85
2022-11-03T04:52:55.991Z,7.85
2022-11-03T04:55:24.458Z,7.46
2022-11-03T04:57:56.332Z,7.72
2022-11-03T05:00:25.349Z,7.45
2022-11-03T05:02:56.321Z,7.63
2022-11-03T05:05:27.407Z,7.57
2022-11-03T05:07:56.978Z,7.59
2022-11-03T05:10:26.964Z,7.54
2022-11-03T05:12:55.653Z,7.41
2022-11-03T05:15:31.163Z,7.68
2022-11-03T05:18:01.600Z,7.75
2022-11-03T05:20:36.218Z,7.78
2022-11-03T05:23:05.631Z,7.64
2022-11-03T05:25:41.582Z,7.92
2022-11-03T05:28:16.213Z,7.83
2022-11-03T05:30:44.686Z,7.44
2022-11-03T05:33:20.443Z,7.90
2022-11-03T05:35:49.240Z,7.47
2022-11-03T05:38:19.274Z,7.64
2022-11-03T05:40:47.964Z,7.38
2022-11-03T05:43:16.550Z,7.45
2022-11-03T05:45:45.838Z,7.46
2022-11-03T05:48:19.995Z,7.79
2022-11-03T05:50:48.351Z,7.53
2022-11-03T05:53:29.103Z,8.10
2022-11-03T05:56:02.074Z,8.13
2022-11-03T05:58:35.152Z,8.36
2022-11-03T06:01:07.958Z,8.66
2022-11-03T06:03:40.215Z,8.82
2022-11-03T06:06:17.732Z,9.23
2022-11-03T06:08:46.335Z,9.31
2022-11-03T06:11:26.050Z,10.29
2022-11-03T06:13:54.259Z,10.30
2022-11-03T06:16:33.772Z,10.91
2022-11-03T06:19:11.979Z,10.79
2022-11-03T06:21:44.435Z,10.25
2022-11-03T06:24:13.128Z,10.16
2022-11-03T06:26:43.063Z,10.46
2022-11-03T06:29:14.641Z,10.68
2022-11-03T06:31:44.305Z,11.29
2022-11-03T06:34:31.559Z,12.64
2022-11-03T06:37:00.866Z,13.13
2022-11-03T06:39:29.006Z,13.74
2022-11-03T06:41:57.519Z,14.31
2022-11-03T06:44:26.880Z,14.86
2022-11-03T06:46:55.957Z,15.08
2022-11-03T06:49:32.318Z,15.66
2022-11-03T06:52:04.223Z,15.98
2022-11-03T06:54:32.292Z,16.24
2022-11-03T06:57:00.978Z,17.05
2022-11-03T06:59:29.046Z,17.69
2022-11-03T07:01:57.623Z,18.59
2022-11-03T07:04:29.310Z,19.51
2022-11-03T07:07:02.371Z,19.99
2022-11-03T07:09:30.594Z,19.87
2022-11-03T07:12:01.163Z,20.36
2022-11-03T07:14:30.618Z,20.73
2022-11-03T07:17:02.563Z,21.17
2022-11-03T07:19:32.066Z,20.95
2022-11-03T07:22:03.104Z,21.53
2022-11-03T07:24:32.837Z,22.08
2022-11-03T07:27:07.090Z,22.12
2022-11-03T07:29:35.215Z,21.60
2022-11-03T07:32:04.016Z,21.69
2022-11-03T07:34:34.036Z,22.04
2022-11-03T07:37:04.461Z,21.99
2022-11-03T07:39:36.406Z,22.37
2022-11-03T07:42:13.181Z,22.93
2022-11-03T07:44:41.797Z,23.33
2022-11-03T07:47:13.746Z,23.92
2022-11-03T07:49:42.506Z,24.53
2022-11-03T07:52:16.031Z,26.03
2022-11-03T07:54:44.280Z,25.63
2022-11-03T07:57:15.276Z,26.01
2022-11-03T07:59:44.779Z,26.11
2022-11-03T08:02:27.729Z,26.12
2022-11-03T08:04:55.913Z,25.61
2022-11-03T08:07:25.653Z,26.19
2022-11-03T08:09:53.824Z,25.84
2022-11-03T08:12:22.303Z,25.56
2022-11-03T08:14:50.602Z,26.06
2022-11-03T08:17:19.033Z,26.73
2022-11-03T08:19:47.181Z,27.47
2022-11-03T08:22:15.776Z,26.86
2022-11-03T08:24:45.428Z,27.57
2022-11-03T08:27:14.075Z,27.17
2022-11-03T08:29:42.297Z,27.28
2022-11-03T08:32:10.612Z,26.56
2022-11-03T08:34:38.919Z,26.39
2022-11-03T08:37:07.385Z,26.10
2022-11-03T08:39:36.271Z,26.16
2022-11-03T08:42:06.153Z,27.46
2022-11-03T08:44:34.167Z,26.82
2022-11-03T08:47:02.604Z,26.13
2022-11-03T08:49:30.721Z,25.75
2022-11-03T08:51:59.111Z,25.95
2022-11-03T08:54:27.170Z,26.07
2022-11-03T08:56:55.551Z,26.66
2022-11-03T08:59:24.989Z,27.85
2022-11-03T09:01:53.532Z,28.72
2022-11-03T09:04:21.792Z,29.71
2022-11-03T09:06:50.315Z,29.23
2022-11-03T09:12:07.143Z,29.16
2022-11-03T09:14:36.753Z,28.32
2022-11-03T09:17:05.180Z,28.01
2022-11-03T09:19:35.843Z,28.31
2022-11-03T09:22:04.180Z,29.55
2022-11-03T09:24:32.692Z,30.67
2022-11-03T09:27:02.477Z,31.55
2022-11-03T09:29:51.646Z,31.24
2022-11-03T09:32:23.522Z,30.66
2022-11-03T09:34:52.143Z,29.46
2022-11-03T09:37:20.458Z,30.19
2022-11-03T09:39:48.879Z,31.48
2022-11-03T09:42:17.984Z,33.39
2022-11-03T09:44:49.096Z,34.55
2022-11-03T09:47:24.290Z,34.13
2022-11-03T09:49:52.965Z,33.38
2022-11-03T09:52:23.907Z,32.76
2022-11-03T09:54:55.371Z,31.86
2022-11-03T09:57:24.173Z,31.98
2022-11-03T09:59:52.800Z,32.66
2022-11-03T10:02:26.948Z,33.34
2022-11-03T10:04:57.826Z,33.84
2022-11-03T10:07:27.760Z,34.01
2022-11-03T10:09:56.269Z,33.67
2022-11-03T10:12:25.684Z,34.04
2022-11-03T10:14:54.198Z,34.59
2022-11-03T10:17:25.795Z,35.61
2022-11-03T10:19:58.096Z,36.22
2022-11-03T10:22:26.759Z,36.01
2022-11-03T10:25:28.924Z,36.05
2022-11-03T10:28:15.602Z,35.34
2022-11-03T10:31:11.409Z,34.58
2022-11-03T10:33:42.527Z,32.69
2022-11-03T10:36:26.232Z,32.67
2022-11-03T10:38:56.416Z,32.58
2022-11-03T10:41:25.943Z,31.66
2022-11-03T10:44:05.880Z,32.30
2022-11-03T10:46:51.249Z,33.22
2022-11-03T10:49:21.171Z,32.95
2022-11-03T10:51:52.989Z,32.17
2022-11-03T10:54:23.027Z,33.15
2022-11-03T10:56:52.375Z,33.87
2022-11-03T10:59:22.081Z,33.86
2022-11-03T11:01:50.638Z,32.43
2022-11-03T11:04:22.013Z,31.04
2022-11-03T11:06:52.792Z,29.95
2022-11-03T11:09:25.627Z,29.15
2022-11-03T11:12:01.747Z,29.69
2022-11-03T11:14:39.376Z,30.81
2022-11-03T11:17:41.061Z,31.61
2022-11-03T11:20:30.536Z,31.94
2022-11-03T11:23:49.312Z,32.40
2022-11-03T11:26:32.179Z,32.32
2022-11-03T11:29:46.056Z,31.09
2022-11-03T11:32:47.978Z,29.23
2022-11-03T11:36:10.083Z,28.52
2022-11-03T11:39:05.734Z,29.48
2022-11-03T11:42:10.532Z,28.02
2022-11-03T11:44:57.872Z,25.98
2022-11-03T11:47:29.193Z,23.80
2022-11-03T11:50:39.036Z,23.47
2022-11-03T11:53:15.571Z,22.76
2022-11-03T11:55:47.019Z,22.05
2022-11-03T11:58:20.665Z,21.61
2022-11-03T12:00:55.036Z,21.01
2022-11-03T12:03:28.110Z,20.39
2022-11-03T12:05:56.405Z,19.74
2022-11-03T12:08:30.798Z,19.59
2022-11-03T12:11:01.971Z,19.42
2022-11-03T12:13:53.137Z,19.63
2022-11-03T12:16:34.915Z,19.54
2022-11-03T12:19:38.512Z,19.23
2022-11-03T12:22:09.093Z,18.58
2022-11-03T12:24:40.623Z,18.69
2022-11-03T12:27:43.402Z,19.05
2022-11-03T12:30:19.724Z,18.41
2022-11-03T12:32:48.667Z,18.01
2022-11-03T12:35:17.350Z,17.36
2022-11-03T12:37:46.462Z,17.31
2022-11-03T12:40:15.017Z,17.30
2022-11-03T12:42:43.512Z,17.08
2022-11-03T12:45:14.000Z,17.17
2022-11-03T12:47:43.747Z,17.37
2022-11-03T12:50:12.421Z,16.90
2022-11-03T12:52:40.750Z,16.32
2022-11-03T12:55:09.897Z,16.35
2022-11-03T12:57:38.127Z,16.28
2022-11-03T13:00:07.861Z,16.45
2022-11-03T13:02:36.296Z,16.24
2022-11-03T13:05:07.021Z,16.39
2022-11-03T13:07:35.354Z,15.95
2022-11-03T13:10:04.910Z,16.08
2022-11-03T13:12:33.940Z,16.15
2022-11-03T13:15:04.232Z,16.31
2022-11-03T13:17:52.018Z,15.58
2022-11-03T13:20:22.304Z,16.20
2022-11-03T13:22:50.608Z,15.64
2022-11-03T13:25:19.697Z,15.36
2022-11-03T13:27:53.847Z,15.46
2022-11-03T13:30:22.665Z,15.47
2022-11-03T13:32:50.891Z,15.52
2022-11-03T13:35:19.531Z,15.49
2022-11-03T13:37:49.190Z,15.60
2022-11-03T13:43:06.545Z,14.94
2022-11-03T13:45:35.433Z,14.15
2022-11-03T13:49:08.775Z,14.53
2022-11-03T13:50:53.779Z,14.70
2022-11-03T13:56:18.967Z,14.99
2022-11-03T14:01:38.827Z,15.21
2022-11-03T14:06:55.641Z,14.87
2022-11-03T14:09:25.468Z,14.77
2022-11-03T14:12:11.412Z,14.76
2022-11-03T14:14:39.536Z,14.93
2022-11-03T14:17:08.000Z,15.04
2022-11-03T14:19:42.921Z,15.07
2022-11-03T14:22:13.485Z,15.11
2022-11-03T14:24:43.019Z,15.23
2022-11-03T14:27:11.476Z,14.83
2022-11-03T14:29:39.816Z,14.87
2022-11-03T14:32:08.575Z,14.56
2022-11-03T14:34:37.130Z,14.75
2022-11-03T14:37:06.085Z,14.25
2022-11-03T14:39:34.427Z,14.19
2022-11-03T14:42:03.665Z,13.87
2022-11-03T14:44:32.617Z,13.95
2022-11-03T14:47:01.888Z,14.15
2022-11-03T14:49:30.806Z,14.02
2022-11-03T14:51:59.653Z,14.09
2022-11-03T14:54:28.191Z,13.93
2022-11-03T14:56:56.394Z,13.66
2022-11-03T14:59:26.339Z,13.92
2022-11-03T15:01:55.474Z,13.73
2022-11-03T15:04:24.306Z,13.41
2022-11-03T15:06:52.559Z,13.34
2022-11-03T15:09:21.113Z,13.43
2022-11-03T15:11:49.193Z,13.30
2022-11-03T15:14:17.735Z,13.48
2022-11-03T15:16:48.199Z,13.53
2022-11-03T15:19:16.339Z,13.58
2022-11-03T15:21:44.587Z,13.45
2022-11-03T15:27:01.060Z,13.39
2022-11-03T15:29:29.631Z,13.37
2022-11-03T15:31:59.013Z,13.61
2022-11-03T15:34:27.601Z,13.12
2022-11-03T15:36:55.744Z,13.36
2022-11-03T15:39:24.227Z,13.31
2022-11-03T15:41:52.297Z,13.14
2022-11-03T15:44:20.661Z,12.90
2022-11-03T15:46:48.761Z,12.57
2022-11-03T15:49:18.152Z,13.02
2022-11-03T15:51:46.810Z,12.68
2022-11-03T15:54:14.908Z,12.91
2022-11-03T15:56:43.500Z,12.91
2022-11-03T15:59:11.732Z,12.58
2022-11-03T16:01:40.445Z,12.68
2022-11-03T16:04:08.940Z,12.62
2022-11-03T16:07:07.513Z,13.01
2022-11-03T16:09:27.223Z,12.43
2022-11-03T16:11:55.577Z,12.36
2022-11-03T16:14:23.701Z,12.49
2022-11-03T16:16:51.896Z,12.67
2022-11-03T16:19:20.208Z,12.32
2022-11-03T16:21:49.915Z,12.68
2022-11-03T16:24:18.496Z,12.37
2022-11-03T16:26:46.850Z,12.39
2022-11-03T16:29:15.207Z,12.24
2022-11-03T16:31:43.444Z,12.46
2022-11-03T16:34:11.923Z,12.60
2022-11-03T16:36:40.185Z,12.31
2022-11-03T16:39:10.752Z,12.31
2022-11-03T16:41:39.479Z,11.90
2022-11-03T16:44:08.330Z,12.20
2022-11-03T16:46:36.641Z,12.21
2022-11-03T16:49:05.081Z,12.17
2022-11-03T16:51:33.602Z,11.97
2022-11-03T16:54:02.026Z,11.91
2022-11-03T16:56:31.697Z,12.17
2022-11-03T16:59:00.110Z,11.64
2022-11-03T17:01:28.584Z,11.79
2022-11-03T17:03:57.272Z,11.71
2022-11-03T17:06:25.588Z,11.65
2022-11-03T17:08:54.106Z,11.85
2022-11-03T17:14:17.955Z,12.00
2022-11-03T17:16:47.302Z,11.64
2022-11-03T17:19:15.719Z,11.81
2022-11-03T17:21:44.675Z,12.00
2022-11-03T17:24:13.496Z,11.54
2022-11-03T17:26:51.498Z,12.27
2022-11-03T17:29:24.494Z,12.21
2022-11-03T17:31:53.284Z,11.52
2022-11-03T17:34:24.385Z,12.11
2022-11-03T17:36:53.894Z,11.89
2022-11-03T17:39:29.312Z,12.09
2022-11-03T17:42:05.589Z,12.44
2022-11-03T17:44:35.133Z,12.03
2022-11-03T17:47:03.524Z,11.90
2022-11-03T17:49:31.839Z,11.74
2022-11-03T17:52:00.252Z,11.70
2022-11-03T17:54:30.051Z,12.24
2022-11-03T17:56:58.739Z,11.95
2022-11-03T17:59:27.338Z,12.28
2022-11-03T18:01:57.375Z,12.30
2022-11-03T18:04:25.667Z,12.24
2022-11-03T18:06:54.024Z,12.06
2022-11-03T18:09:22.990Z,11.89
2022-11-03T18:12:09.064Z,11.92
2022-11-03T18:14:37.217Z,11.65
2022-11-03T18:17:07.154Z,12.17
2022-11-03T18:19:35.518Z,12.03
2022-11-03T18:22:04.221Z,12.15
2022-11-03T18:24:32.376Z,12.30
2022-11-03T18:27:00.821Z,11.82
2022-11-03T18:29:29.052Z,11.92
2022-11-03T18:31:58.023Z,12.20
2022-11-03T18:34:28.270Z,12.32
2022-11-03T18:36:56.684Z,12.00
2022-11-03T18:39:26.412Z,12.31
2022-11-03T18:41:55.263Z,12.07
2022-11-03T18:44:25.318Z,12.23
2022-11-03T18:46:55.484Z,12.38
2022-11-03T18:49:24.088Z,12.42
2022-11-03T18:52:02.117Z,12.23
2022-11-03T18:54:31.581Z,12.30
2022-11-03T18:57:00.257Z,12.24
2022-11-03T18:59:30.927Z,12.29
2022-11-03T19:01:59.531Z,12.20
2022-11-03T19:04:27.838Z,12.06
2022-11-03T19:06:58.527Z,12.31
2022-11-03T19:09:27.727Z,12.15
2022-11-03T19:11:58.037Z,12.27
2022-11-03T19:14:31.828Z,12.24
2022-11-03T19:19:48.678Z,11.99
2022-11-03T19:22:19.989Z,12.24
2022-11-03T19:24:48.076Z,11.97
2022-11-03T19:27:18.310Z,12.20
2022-11-03T19:29:47.296Z,12.07
2022-11-03T19:32:18.393Z,12.33
2022-11-03T19:34:46.733Z,12.05
2022-11-03T19:37:15.823Z,12.22
2022-11-03T19:39:45.328Z,12.43
2022-11-03T19:42:31.998Z,12.30
2022-11-03T19:45:01.138Z,12.32
2022-11-03T19:47:33.252Z,12.48
2022-11-03T19:50:01.846Z,12.36
2022-11-03T19:52:31.549Z,12.52
2022-11-03T19:55:02.491Z,12.50
2022-11-03T19:57:31.034Z,12.10
2022-11-03T19:59:59.839Z,12.16
2022-11-03T20:02:29.235Z,12.23
2022-11-03T20:04:57.586Z,11.95
2022-11-03T20:07:31.506Z,11.97
2022-11-03T20:10:02.845Z,12.35
2022-11-03T20:12:32.262Z,12.12
2022-11-03T20:15:00.368Z,11.97
2022-11-03T20:17:28.994Z,12.07
2022-11-03T20:19:57.373Z,12.05
2022-11-03T20:22:29.157Z,12.48
2022-11-03T20:24:57.368Z,12.57
2022-11-03T20:27:27.340Z,12.18
2022-11-03T20:29:56.170Z,12.03
2022-11-03T20:32:24.284Z,12.05
2022-11-03T20:34:52.704Z,12.14
2022-11-03T20:37:22.030Z,12.24
2022-11-03T20:39:50.381Z,12.02
2022-11-03T20:42:21.716Z,12.48
2022-11-03T20:44:51.877Z,12.38
2022-11-03T20:47:21.018Z,12.23
2022-11-03T20:49:49.346Z,12.04
2022-11-03T20:52:17.681Z,12.04
2022-11-03T20:54:46.309Z,11.99
2022-11-03T20:57:14.682Z,12.05
2022-11-03T20:59:43.094Z,11.85
2022-11-03T21:02:14.166Z,12.25
2022-11-03T21:04:43.325Z,12.03
2022-11-03T21:07:13.201Z,12.14
2022-11-03T21:09:42.225Z,12.14
2022-11-03T21:12:13.773Z,12.39
2022-11-03T21:15:04.210Z,12.08
2022-11-03T21:17:50.825Z,12.11
2022-11-03T21:20:19.162Z,11.73
2022-11-03T21:22:54.676Z,11.73
2022-11-03T21:25:24.704Z,11.98
2022-11-03T21:27:53.850Z,11.83
2022-11-03T21:30:23.209Z,11.96
2022-11-03T21:32:52.890Z,12.15
2022-11-03T21:35:22.602Z,12.24
2022-11-03T21:37:50.773Z,11.81
2022-11-03T21:40:19.183Z,11.88
2022-11-03T21:43:04.577Z,11.87
2022-11-03T21:45:33.091Z,12.10
2022-11-03T21:48:20.771Z,12.34
2022-11-03T21:50:49.434Z,11.79
2022-11-03T21:53:17.517Z,11.70
2022-11-03T21:55:48.433Z,11.98
2022-11-03T21:58:16.529Z,11.74
2022-11-03T22:00:47.167Z,11.79
2022-11-03T22:03:16.876Z,12.00
2022-11-03T22:05:45.357Z,11.78
2022-11-03T22:08:13.543Z,11.81
2022-11-03T22:10:42.272Z,11.79
2022-11-03T22:13:11.051Z,11.86
2022-11-03T22:15:56.998Z,11.88
2022-11-03T22:18:26.609Z,12.00
2022-11-03T22:21:12.739Z,11.79
2022-11-03T22:23:58.079Z,11.83
2022-11-03T22:26:43.655Z,11.63
2022-11-03T22:29:29.233Z,11.58
2022-11-03T22:31:57.678Z,11.48
2022-11-03T22:34:44.807Z,11.76
2022-11-03T22:37:13.216Z,11.55
2022-11-03T22:39:59.172Z,11.53
2022-11-03T22:45:35.320Z,11.46
2022-11-03T22:48:04.823Z,11.52
2022-11-03T22:50:34.259Z,11.75
2022-11-03T22:53:23.050Z,11.42
2022-11-03T22:55:50.144Z,11.57
2022-11-03T22:58:18.640Z,11.47
2022-11-03T23:00:48.074Z,11.52
2022-11-03T23:03:18.107Z,11.64
2022-11-03T23:05:47.644Z,11.55
2022-11-03T23:08:16.062Z,11.20
2022-11-03T23:10:44.124Z,11.28
2022-11-03T23:13:12.217Z,11.09
2022-11-03T23:15:43.823Z,11.17
2022-11-03T23:18:29.107Z,11.22
2022-11-03T23:21:07.808Z,11.70
2022-11-03T23:23:54.002Z,11.61
2022-11-03T23:26:22.692Z,11.45
2022-11-03T23:28:51.025Z,11.51
2022-11-03T23:31:19.598Z,11.43
2022-11-03T23:33:47.817Z,11.32
2022-11-03T23:36:18.767Z,11.84
2022-11-03T23:38:47.250Z,11.49
2022-11-03T23:41:16.661Z,11.57
2022-11-03T23:43:45.941Z,11.37
2022-11-03T23:46:33.209Z,11.55
2022-11-03T23:49:01.697Z,11.11
2022-11-03T23:51:32.074Z,11.27
2022-11-03T23:54:01.521Z,11.12
2022-11-03T23:56:49.446Z,11.36
2022-11-03T23:59:18.330Z,10.98
